Time,TemperatureF,DewpointF,PressureIn,WindDirection,WindDirectionDegrees,WindSpeedMPH,WindSpeedGustMPH,Humidity,HourlyPrecipIn,Conditions,Clouds,dailyrainin,SoftwareType,DateUTC
2013-03-21 00:00:00,16.3,10.9,29.91,West,273,0.0,6.0,79,0.00,,,0.00,Weather View 32 v70,2013-03-21 04:00:00,
2013-03-21 00:05:00,16.2,10.8,29.91,West,272,0.0,5.0,79,0.00,,,0.00,Weather View 32 v70,2013-03-21 04:05:00,
2013-03-21 00:10:00,16.1,10.7,29.90,West,264,0.0,5.0,79,0.00,,,0.00,Weather View 32 v70,2013-03-21 04:10:00,
2013-03-21 00:15:00,16.1,11.0,29.90,West,264,0.0,5.0,80,0.00,,,0.00,Weather View 32 v70,2013-03-21 04:15:00,
2013-03-21 00:20:00,16.0,10.9,29.90,North,349,0.0,5.0,80,0.00,,,0.00,Weather View 32 v70,2013-03-21 04:20:00,
2013-03-21 00:25:00,16.0,10.9,29.90,NNW,328,0.0,5.0,80,0.00,,,0.00,Weather View 32 v70,2013-03-21 04:25:00,
2013-03-21 00:30:00,15.9,10.8,29.90,NNW,328,0.0,5.0,80,0.00,,,0.00,Weather View 32 v70,2013-03-21 04:30:00,
2013-03-21 00:35:00,15.9,11.1,29.90,West,262,0.0,5.0,81,0.00,,,0.00,Weather View 32 v70,2013-03-21 04:35:00,
2013-03-21 00:40:00,15.9,11.1,29.90,West,261,0.0,5.0,81,0.00,,,0.00,Weather View 32 v70,2013-03-21 04:40:00,
2013-03-21 00:45:00,15.8,11.0,29.89,WSW,257,1.0,5.0,81,0.00,,,0.00,Weather View 32 v70,2013-03-21 04:45:00,
2013-03-21 00:50:00,15.7,10.9,29.90,WSW,257,0.0,5.0,81,0.00,,,0.00,Weather View 32 v70,2013-03-21 04:50:00,
2013-03-21 00:55:00,15.6,10.8,29.90,WSW,257,0.0,5.0,81,0.00,,,0.00,Weather View 32 v70,2013-03-21 04:55:00,
2013-03-21 01:00:00,15.5,11.0,29.90,WSW,257,0.0,5.0,82,0.00,,,0.00,Weather View 32 v70,2013-03-21 05:00:00,
2013-03-21 01:05:00,15.4,10.9,29.90,WSW,253,0.0,5.0,82,0.00,,,0.00,Weather View 32 v70,2013-03-21 05:05:00,
2013-03-21 01:10:00,15.3,11.1,29.89,WSW,253,0.0,5.0,83,0.00,,,0.00,Weather View 32 v70,2013-03-21 05:10:00,
2013-03-21 01:16:00,15.3,11.1,29.89,WSW,241,0.0,5.0,83,0.00,,,0.00,Weather View 32 v70,2013-03-21 05:16:00,
2013-03-21 01:21:00,15.2,11.0,29.89,West,273,0.0,5.0,83,0.00,,,0.00,Weather View 32 v70,2013-03-21 05:21:00,
2013-03-21 01:26:00,15.2,11.0,29.89,West,273,0.0,5.0,83,0.00,,,0.00,Weather View 32 v70,2013-03-21 05:26:00,
2013-03-21 01:31:00,15.1,10.9,29.89,West,272,0.0,5.0,83,0.00,,,0.00,Weather View 32 v70,2013-03-21 05:31:00,
2013-03-21 01:36:00,15.0,11.0,29.89,West,273,0.0,5.0,84,0.00,,,0.00,Weather View 32 v70,2013-03-21 05:36:00,
2013-03-21 01:41:00,15.0,11.0,29.89,West,273,0.0,5.0,84,0.00,,,0.00,Weather View 32 v70,2013-03-21 05:41:00,
2013-03-21 01:46:00,14.9,10.9,29.88,West,272,0.0,5.0,84,0.00,,,0.00,Weather View 32 v70,2013-03-21 05:46:00,
2013-03-21 01:51:00,14.8,10.8,29.88,West,273,0.0,3.0,84,0.00,,,0.00,Weather View 32 v70,2013-03-21 05:51:00,
2013-03-21 01:56:00,14.7,10.8,29.88,West,273,0.0,3.0,84,0.00,,,0.00,Weather View 32 v70,2013-03-21 05:56:00,
2013-03-21 02:01:00,14.7,11.0,29.89,West,273,0.0,3.0,85,0.00,,,0.00,Weather View 32 v70,2013-03-21 06:01:00,
2013-03-21 02:06:00,14.7,11.0,29.89,West,273,0.0,3.0,85,0.00,,,0.00,Weather View 32 v70,2013-03-21 06:06:00,
2013-03-21 02:11:00,14.7,11.0,29.89,WSW,248,0.0,3.0,85,0.00,,,0.00,Weather View 32 v70,2013-03-21 06:11:00,
2013-03-21 02:16:00,14.8,11.1,29.88,WSW,248,0.0,3.0,85,0.00,,,0.00,Weather View 32 v70,2013-03-21 06:16:00,
2013-03-21 02:21:00,14.9,11.2,29.88,West,271,0.0,3.0,85,0.00,,,0.00,Weather View 32 v70,2013-03-21 06:21:00,
2013-03-21 02:26:00,14.8,11.1,29.88,West,271,0.0,3.0,85,0.00,,,0.00,Weather View 32 v70,2013-03-21 06:26:00,
2013-03-21 02:31:00,14.8,11.1,29.88,West,271,0.0,3.0,85,0.00,,,0.00,Weather View 32 v70,2013-03-21 06:31:00,
2013-03-21 02:36:00,14.8,11.1,29.89,West,271,0.0,3.0,85,0.00,,,0.00,Weather View 32 v70,2013-03-21 06:36:00,
2013-03-21 02:41:00,14.6,10.9,29.89,West,271,0.0,3.0,85,0.00,,,0.00,Weather View 32 v70,2013-03-21 06:41:00,
2013-03-21 02:46:00,14.7,11.0,29.88,West,271,0.0,3.0,85,0.00,,,0.00,Weather View 32 v70,2013-03-21 06:46:00,
2013-03-21 02:51:00,14.7,11.0,29.88,West,271,0.0,3.0,85,0.00,,,0.00,Weather View 32 v70,2013-03-21 06:51:00,
2013-03-21 02:56:00,14.6,10.9,29.88,West,271,0.0,3.0,85,0.00,,,0.00,Weather View 32 v70,2013-03-21 06:56:00,
2013-03-21 03:01:00,14.6,11.2,29.87,West,271,0.0,3.0,86,0.00,,,0.00,Weather View 32 v70,2013-03-21 07:01:00,
2013-03-21 03:06:00,14.6,10.9,29.88,West,271,0.0,3.0,85,0.00,,,0.00,Weather View 32 v70,2013-03-21 07:06:00,
2013-03-21 03:11:00,14.5,10.8,29.87,West,271,0.0,3.0,85,0.00,,,0.00,Weather View 32 v70,2013-03-21 07:11:00,
2013-03-21 03:16:00,14.5,10.8,29.87,West,271,0.0,3.0,85,0.00,,,0.00,Weather View 32 v70,2013-03-21 07:16:00,
2013-03-21 03:21:00,14.5,11.1,29.87,West,271,0.0,2.0,86,0.00,,,0.00,Weather View 32 v70,2013-03-21 07:21:00,
2013-03-21 03:26:00,14.5,11.1,29.87,West,271,0.0,2.0,86,0.00,,,0.00,Weather View 32 v70,2013-03-21 07:26:00,
2013-03-21 03:31:00,14.6,11.2,29.87,West,271,0.0,3.0,86,0.00,,,0.00,Weather View 32 v70,2013-03-21 07:31:00,
2013-03-21 03:36:00,14.6,11.2,29.87,West,269,0.0,3.0,86,0.00,,,0.00,Weather View 32 v70,2013-03-21 07:36:00,
2013-03-21 03:41:00,14.8,11.4,29.87,West,268,0.0,3.0,86,0.00,,,0.00,Weather View 32 v70,2013-03-21 07:41:00,
2013-03-21 03:47:00,14.8,11.4,29.86,West,268,0.0,3.0,86,0.00,,,0.00,Weather View 32 v70,2013-03-21 07:47:00,
2013-03-21 03:52:00,14.9,11.5,29.86,WSW,250,0.0,7.0,86,0.00,,,0.00,Weather View 32 v70,2013-03-21 07:52:00,
2013-03-21 03:57:00,15.0,11.6,29.86,SW,219,2.0,7.0,86,0.00,,,0.00,Weather View 32 v70,2013-03-21 07:57:00,
2013-03-21 04:02:00,15.1,11.7,29.86,WSW,240,0.0,7.0,86,0.00,,,0.00,Weather View 32 v70,2013-03-21 08:02:00,
2013-03-21 04:07:00,15.1,11.7,29.86,WSW,254,0.0,7.0,86,0.00,,,0.00,Weather View 32 v70,2013-03-21 08:07:00,
2013-03-21 04:12:00,15.1,11.7,29.86,WNW,290,0.0,7.0,86,0.00,,,0.00,Weather View 32 v70,2013-03-21 08:12:00,
2013-03-21 04:17:00,15.0,11.6,29.86,WNW,291,0.0,7.0,86,0.00,,,0.00,Weather View 32 v70,2013-03-21 08:17:00,
2013-03-21 04:22:00,15.0,11.6,29.86,WNW,291,0.0,7.0,86,0.00,,,0.00,Weather View 32 v70,2013-03-21 08:22:00,
2013-03-21 04:27:00,14.9,11.5,29.86,WNW,291,0.0,7.0,86,0.00,,,0.00,Weather View 32 v70,2013-03-21 08:27:00,
2013-03-21 04:32:00,14.8,11.4,29.86,WNW,291,0.0,7.0,86,0.00,,,0.00,Weather View 32 v70,2013-03-21 08:32:00,
2013-03-21 04:37:00,14.7,11.3,29.86,WNW,291,0.0,7.0,86,0.00,,,0.00,Weather View 32 v70,2013-03-21 08:37:00,
2013-03-21 04:42:00,14.6,11.2,29.85,WNW,284,0.0,7.0,86,0.00,,,0.00,Weather View 32 v70,2013-03-21 08:42:00,
2013-03-21 04:47:00,14.6,11.4,29.85,WNW,284,0.0,7.0,87,0.00,,,0.00,Weather View 32 v70,2013-03-21 08:47:00,
2013-03-21 04:52:00,14.6,11.4,29.85,West,277,0.0,6.0,87,0.00,,,0.00,Weather View 32 v70,2013-03-21 08:52:00,
2013-03-21 04:57:00,14.7,11.5,29.85,NNW,330,4.0,5.0,87,0.00,,,0.00,Weather View 32 v70,2013-03-21 08:57:00,
2013-03-21 05:02:00,14.8,11.6,29.85,NW,309,0.0,4.0,87,0.00,,,0.00,Weather View 32 v70,2013-03-21 09:02:00,
2013-03-21 05:07:00,15.0,11.8,29.85,NW,306,0.0,4.0,87,0.00,,,0.00,Weather View 32 v70,2013-03-21 09:07:00,
2013-03-21 05:12:00,15.1,11.9,29.84,NW,306,0.0,4.0,87,0.00,,,0.00,Weather View 32 v70,2013-03-21 09:12:00,
2013-03-21 05:17:00,15.3,12.4,29.84,NW,306,0.0,4.0,88,0.00,,,0.00,Weather View 32 v70,2013-03-21 09:17:00,
2013-03-21 05:22:00,15.4,12.5,29.84,NW,306,0.0,4.0,88,0.00,,,0.00,Weather View 32 v70,2013-03-21 09:22:00,
2013-03-21 05:27:00,15.5,12.6,29.84,NW,306,0.0,4.0,88,0.00,,,0.00,Weather View 32 v70,2013-03-21 09:27:00,
2013-03-21 05:32:00,15.6,12.7,29.84,NW,306,0.0,4.0,88,0.00,,,0.00,Weather View 32 v70,2013-03-21 09:32:00,
2013-03-21 05:37:00,15.7,12.8,29.84,WSW,244,0.0,5.0,88,0.00,,,0.00,Weather View 32 v70,2013-03-21 09:37:00,
2013-03-21 05:42:00,15.7,12.8,29.84,WSW,243,0.0,5.0,88,0.00,,,0.00,Weather View 32 v70,2013-03-21 09:42:00,
2013-03-21 05:47:00,15.8,12.9,29.84,West,272,0.0,5.0,88,0.00,,,0.00,Weather View 32 v70,2013-03-21 09:47:00,
2013-03-21 05:52:00,15.8,12.6,29.84,NW,306,0.0,11.0,87,0.00,,,0.00,Weather View 32 v70,2013-03-21 09:52:00,
2013-03-21 05:57:00,15.8,12.6,29.84,West,259,0.0,11.0,87,0.00,,,0.00,Weather View 32 v70,2013-03-21 09:57:00,
2013-03-21 06:02:00,15.8,12.6,29.84,West,259,1.0,11.0,87,0.00,,,0.00,Weather View 32 v70,2013-03-21 10:02:00,
2013-03-21 06:07:00,15.8,12.6,29.84,West,259,0.0,11.0,87,0.00,,,0.00,Weather View 32 v70,2013-03-21 10:07:00,
2013-03-21 06:12:00,15.8,12.6,29.84,West,259,0.0,11.0,87,0.00,,,0.00,Weather View 32 v70,2013-03-21 10:12:00,
2013-03-21 06:17:00,15.7,12.5,29.84,NNW,334,1.0,11.0,87,0.00,,,0.00,Weather View 32 v70,2013-03-21 10:17:00,
2013-03-21 06:22:00,15.6,12.4,29.84,WNW,290,0.0,11.0,87,0.00,,,0.00,Weather View 32 v70,2013-03-21 10:22:00,
2013-03-21 06:27:00,15.5,12.3,29.84,WNW,290,0.0,11.0,87,0.00,,,0.00,Weather View 32 v70,2013-03-21 10:27:00,
2013-03-21 06:32:00,15.5,12.6,29.84,WNW,290,0.0,11.0,88,0.00,,,0.00,Weather View 32 v70,2013-03-21 10:32:00,
2013-03-21 06:37:00,15.4,12.5,29.84,NW,325,0.0,11.0,88,0.00,,,0.00,Weather View 32 v70,2013-03-21 10:37:00,
2013-03-21 06:42:00,15.4,12.5,29.84,NW,319,0.0,11.0,88,0.00,,,0.00,Weather View 32 v70,2013-03-21 10:42:00,
2013-03-21 06:47:00,15.4,12.5,29.84,NW,314,0.0,11.0,88,0.00,,,0.00,Weather View 32 v70,2013-03-21 10:47:00,
2013-03-21 06:52:00,15.4,12.5,29.84,West,272,0.0,9.0,88,0.00,,,0.00,Weather View 32 v70,2013-03-21 10:52:00,
2013-03-21 06:57:00,15.3,12.4,29.84,SW,235,0.0,9.0,88,0.00,,,0.00,Weather View 32 v70,2013-03-21 10:57:00,
2013-03-21 07:02:00,15.3,12.4,29.84,WNW,299,0.0,9.0,88,0.00,,,0.00,Weather View 32 v70,2013-03-21 11:02:00,
2013-03-21 07:07:00,15.3,12.4,29.84,WNW,300,0.0,9.0,88,0.00,,,0.00,Weather View 32 v70,2013-03-21 11:07:00,
2013-03-21 07:12:00,15.3,12.4,29.84,WSW,244,3.0,9.0,88,0.00,,,0.00,Weather View 32 v70,2013-03-21 11:12:00,
2013-03-21 07:17:00,15.4,12.7,29.84,WSW,245,0.0,9.0,89,0.00,,,0.00,Weather View 32 v70,2013-03-21 11:17:00,
2013-03-21 07:22:00,15.5,12.8,29.84,WSW,257,0.0,9.0,89,0.00,,,0.00,Weather View 32 v70,2013-03-21 11:22:00,
2013-03-21 07:27:00,15.6,12.9,29.84,NW,306,0.0,9.0,89,0.00,,,0.00,Weather View 32 v70,2013-03-21 11:27:00,
2013-03-21 07:33:00,15.6,12.9,29.84,NW,306,0.0,9.0,89,0.00,,,0.00,Weather View 32 v70,2013-03-21 11:33:00,
2013-03-21 07:38:00,15.7,13.0,29.84,NW,306,0.0,6.0,89,0.00,,,0.00,Weather View 32 v70,2013-03-21 11:38:00,
2013-03-21 07:43:00,15.8,13.1,29.84,NW,306,0.0,6.0,89,0.00,,,0.00,Weather View 32 v70,2013-03-21 11:43:00,
2013-03-21 07:48:00,16.0,13.3,29.84,SW,232,0.0,6.0,89,0.00,,,0.00,Weather View 32 v70,2013-03-21 11:48:00,
2013-03-21 07:53:00,16.2,13.8,29.84,WSW,250,0.0,6.0,90,0.00,,,0.00,Weather View 32 v70,2013-03-21 11:53:00,
2013-03-21 07:58:00,16.6,14.2,29.84,West,268,1.0,7.0,90,0.00,,,0.00,Weather View 32 v70,2013-03-21 11:58:00,
2013-03-21 08:03:00,16.8,14.4,29.84,West,275,0.0,7.0,90,0.00,,,0.00,Weather View 32 v70,2013-03-21 12:03:00,
2013-03-21 08:08:00,17.0,14.3,29.84,WSW,256,0.0,7.0,89,0.00,,,0.00,Weather View 32 v70,2013-03-21 12:08:00,
2013-03-21 08:13:00,17.1,14.4,29.84,West,264,0.0,7.0,89,0.00,,,0.00,Weather View 32 v70,2013-03-21 12:13:00,
2013-03-21 08:18:00,17.3,14.6,29.84,SW,230,1.0,7.0,89,0.00,,,0.00,Weather View 32 v70,2013-03-21 12:18:00,
2013-03-21 08:23:00,17.3,14.6,29.84,WSW,254,0.0,7.0,89,0.00,,,0.00,Weather View 32 v70,2013-03-21 12:23:00,
2013-03-21 08:28:00,17.4,14.7,29.83,WSW,240,0.0,7.0,89,0.00,,,0.00,Weather View 32 v70,2013-03-21 12:28:00,
2013-03-21 08:33:00,17.5,14.8,29.83,WSW,248,1.0,7.0,89,0.00,,,0.00,Weather View 32 v70,2013-03-21 12:33:00,
2013-03-21 08:38:00,17.6,14.9,29.83,West,261,0.0,7.0,89,0.00,,,0.00,Weather View 32 v70,2013-03-21 12:38:00,
2013-03-21 08:43:00,17.7,14.8,29.83,WSW,238,0.0,7.0,88,0.00,,,0.00,Weather View 32 v70,2013-03-21 12:43:00,
2013-03-21 08:48:00,18.0,15.3,29.83,WSW,238,3.0,7.0,89,0.00,,,0.00,Weather View 32 v70,2013-03-21 12:48:00,
2013-03-21 08:53:00,18.3,15.6,29.84,WSW,250,2.0,7.0,89,0.00,,,0.00,Weather View 32 v70,2013-03-21 12:53:00,
2013-03-21 08:58:00,18.7,15.7,29.84,WSW,245,0.0,7.0,88,0.00,,,0.00,Weather View 32 v70,2013-03-21 12:58:00,
2013-03-21 09:03:00,19.1,16.1,29.84,WSW,244,2.0,7.0,88,0.00,,,0.00,Weather View 32 v70,2013-03-21 13:03:00,
2013-03-21 09:08:00,19.7,16.7,29.83,WSW,241,0.0,9.0,88,0.00,,,0.00,Weather View 32 v70,2013-03-21 13:08:00,
2013-03-21 09:13:00,20.2,17.2,29.83,WNW,298,0.0,10.0,88,0.00,,,0.00,Weather View 32 v70,2013-03-21 13:13:00,
2013-03-21 09:18:00,20.7,17.4,29.83,West,276,0.0,10.0,87,0.00,,,0.00,Weather View 32 v70,2013-03-21 13:18:00,
2013-03-21 09:23:00,21.0,17.7,29.83,WNW,286,0.0,10.0,87,0.00,,,0.00,Weather View 32 v70,2013-03-21 13:23:00,
2013-03-21 09:28:00,21.3,18.0,29.83,NNW,344,0.0,10.0,87,0.00,,,0.00,Weather View 32 v70,2013-03-21 13:28:00,
2013-03-21 09:33:00,21.5,17.7,29.84,WNW,285,0.0,10.0,85,0.00,,,0.00,Weather View 32 v70,2013-03-21 13:33:00,
2013-03-21 09:38:00,21.7,18.2,29.84,West,276,0.0,10.0,86,0.00,,,0.00,Weather View 32 v70,2013-03-21 13:38:00,
2013-03-21 09:43:00,22.1,18.3,29.84,SW,225,0.0,10.0,85,0.00,,,0.00,Weather View 32 v70,2013-03-21 13:43:00,
2013-03-21 09:48:00,22.3,18.2,29.84,WSW,237,0.0,10.0,84,0.00,,,0.00,Weather View 32 v70,2013-03-21 13:48:00,
2013-03-21 09:53:00,22.5,18.4,29.84,WSW,253,0.0,10.0,84,0.00,,,0.00,Weather View 32 v70,2013-03-21 13:53:00,
2013-03-21 09:58:00,22.5,18.4,29.84,WNW,295,3.0,11.0,84,0.00,,,0.00,Weather View 32 v70,2013-03-21 13:58:00,
2013-03-21 10:03:00,22.6,18.5,29.84,West,281,4.0,11.0,84,0.00,,,0.00,Weather View 32 v70,2013-03-21 14:03:00,
2013-03-21 10:08:00,22.8,19.0,29.85,NNW,329,0.0,11.0,85,0.00,,,0.00,Weather View 32 v70,2013-03-21 14:08:00,
2013-03-21 10:13:00,23.2,19.1,29.84,WNW,293,2.0,11.0,84,0.00,,,0.00,Weather View 32 v70,2013-03-21 14:13:00,
2013-03-21 10:18:00,23.5,19.4,29.84,WNW,283,1.0,11.0,84,0.00,,,0.00,Weather View 32 v70,2013-03-21 14:18:00,
2013-03-21 10:23:00,23.7,19.9,29.84,WNW,295,0.0,11.0,85,0.00,,,0.00,Weather View 32 v70,2013-03-21 14:23:00,
2013-03-21 10:28:00,23.7,19.6,29.85,NW,306,3.0,11.0,84,0.00,,,0.00,Weather View 32 v70,2013-03-21 14:28:00,
2013-03-21 10:33:00,23.9,19.8,29.85,NNW,328,4.0,12.0,84,0.00,,,0.00,Weather View 32 v70,2013-03-21 14:33:00,
2013-03-21 10:38:00,24.2,20.3,29.85,NNW,331,0.0,12.0,85,0.00,,,0.00,Weather View 32 v70,2013-03-21 14:38:00,
2013-03-21 10:43:00,24.5,20.6,29.85,NNE,14,4.0,12.0,85,0.00,,,0.00,Weather View 32 v70,2013-03-21 14:43:00,
2013-03-21 10:48:00,24.7,20.6,29.85,WSW,248,0.0,12.0,84,0.00,,,0.00,Weather View 32 v70,2013-03-21 14:48:00,
2013-03-21 10:53:00,25.0,20.6,29.85,West,261,6.0,12.0,83,0.00,,,0.00,Weather View 32 v70,2013-03-21 14:53:00,
2013-03-21 10:58:00,25.2,20.8,29.85,NNW,331,2.0,12.0,83,0.00,,,0.00,Weather View 32 v70,2013-03-21 14:58:00,
2013-03-21 11:04:00,25.2,20.8,29.85,WNW,300,0.0,12.0,83,0.00,,,0.00,Weather View 32 v70,2013-03-21 15:04:00,
2013-03-21 11:09:00,25.4,21.0,29.85,NE,44,0.0,12.0,83,0.00,,,0.00,Weather View 32 v70,2013-03-21 15:09:00,
2013-03-21 11:14:00,25.5,21.1,29.85,WSW,242,2.0,12.0,83,0.00,,,0.00,Weather View 32 v70,2013-03-21 15:14:00,
2013-03-21 11:19:00,25.6,21.2,29.85,WNW,283,0.0,12.0,83,0.00,,,0.00,Weather View 32 v70,2013-03-21 15:19:00,
2013-03-21 11:26:00,25.8,21.4,29.86,SSW,211,0.0,12.0,83,0.00,,,0.00,Weather View 32 v70,2013-03-21 15:26:00,
2013-03-21 11:31:00,26.0,21.5,29.86,NW,326,0.0,12.0,83,0.00,,,0.00,Weather View 32 v70,2013-03-21 15:31:00,
2013-03-21 11:36:00,26.1,21.4,29.86,WNW,301,1.0,9.0,82,0.00,,,0.00,Weather View 32 v70,2013-03-21 15:36:00,
2013-03-21 11:41:00,26.2,21.7,29.86,WNW,292,3.0,9.0,83,0.00,,,0.00,Weather View 32 v70,2013-03-21 15:41:00,
2013-03-21 11:46:00,26.4,21.9,29.86,SW,232,0.0,9.0,83,0.00,,,0.00,Weather View 32 v70,2013-03-21 15:46:00,
2013-03-21 11:51:00,26.6,21.8,29.85,NW,313,2.0,9.0,82,0.00,,,0.00,Weather View 32 v70,2013-03-21 15:51:00,
2013-03-21 11:56:00,27.0,22.5,29.86,West,277,4.0,9.0,83,0.00,,,0.00,Weather View 32 v70,2013-03-21 15:56:00,
2013-03-21 12:01:00,27.0,22.2,29.86,SW,236,3.0,9.0,82,0.00,,,0.00,Weather View 32 v70,2013-03-21 16:01:00,
2013-03-21 12:06:00,27.4,22.6,29.86,NW,304,0.0,9.0,82,0.00,,,0.00,Weather View 32 v70,2013-03-21 16:06:00,
2013-03-21 12:12:00,27.7,22.6,29.86,NNE,22,5.0,10.0,81,0.00,,,0.00,Weather View 32 v70,2013-03-21 16:12:00,
2013-03-21 12:17:00,27.9,22.5,29.86,West,259,3.0,10.0,80,0.00,,,0.00,Weather View 32 v70,2013-03-21 16:17:00,
2013-03-21 12:22:00,28.3,23.2,29.86,NE,38,1.0,10.0,81,0.00,,,0.00,Weather View 32 v70,2013-03-21 16:22:00,
2013-03-21 12:27:00,28.8,23.4,29.86,West,273,1.0,10.0,80,0.00,,,0.00,Weather View 32 v70,2013-03-21 16:27:00,
2013-03-21 12:32:00,28.9,23.2,29.85,SSW,194,1.0,10.0,79,0.00,,,0.00,Weather View 32 v70,2013-03-21 16:32:00,
2013-03-21 12:37:00,29.2,23.8,29.85,WSW,249,3.0,10.0,80,0.00,,,0.00,Weather View 32 v70,2013-03-21 16:37:00,
2013-03-21 12:42:00,29.5,23.8,29.86,WNW,289,3.0,10.0,79,0.00,,,0.00,Weather View 32 v70,2013-03-21 16:42:00,
2013-03-21 12:47:00,29.2,23.2,29.85,WSW,248,0.0,10.0,78,0.00,,,0.00,Weather View 32 v70,2013-03-21 16:47:00,
2013-03-21 12:52:00,29.2,23.2,29.85,WNW,294,3.0,11.0,78,0.00,,,0.00,Weather View 32 v70,2013-03-21 16:52:00,
2013-03-21 12:57:00,29.2,23.2,29.85,West,279,0.0,11.0,78,0.00,,,0.00,Weather View 32 v70,2013-03-21 16:57:00,
2013-03-21 13:02:00,29.4,23.1,29.85,SW,234,5.0,11.0,77,0.00,,,0.00,Weather View 32 v70,2013-03-21 17:02:00,
2013-03-21 13:07:00,29.4,23.1,29.85,North,355,1.0,11.0,77,0.00,,,0.00,Weather View 32 v70,2013-03-21 17:07:00,
2013-03-21 13:12:00,29.8,23.5,29.85,NNW,333,4.0,13.0,77,0.00,,,0.00,Weather View 32 v70,2013-03-21 17:12:00,
2013-03-21 13:17:00,29.9,23.3,29.85,WNW,291,0.0,13.0,76,0.00,,,0.00,Weather View 32 v70,2013-03-21 17:17:00,
2013-03-21 13:22:00,30.1,23.1,29.85,WNW,295,0.0,13.0,75,0.00,,,0.00,Weather View 32 v70,2013-03-21 17:22:00,
2013-03-21 13:28:00,30.1,23.1,29.85,NW,319,3.0,13.0,75,0.00,,,0.00,Weather View 32 v70,2013-03-21 17:28:00,
2013-03-21 13:33:00,30.5,23.8,29.85,NNW,334,1.0,13.0,76,0.00,,,0.00,Weather View 32 v70,2013-03-21 17:33:00,
2013-03-21 13:38:00,31.1,24.1,29.85,West,263,0.0,13.0,75,0.00,,,0.00,Weather View 32 v70,2013-03-21 17:38:00,
2013-03-21 13:43:00,31.4,23.7,29.85,West,263,0.0,13.0,73,0.00,,,0.00,Weather View 32 v70,2013-03-21 17:43:00,
2013-03-21 13:48:00,31.4,23.4,29.85,ESE,113,1.0,13.0,72,0.00,,,0.00,Weather View 32 v70,2013-03-21 17:48:00,
2013-03-21 13:53:00,31.5,23.5,29.85,NW,326,3.0,13.0,72,0.00,,,0.00,Weather View 32 v70,2013-03-21 17:53:00,
2013-03-21 13:58:00,31.4,23.1,29.85,WNW,303,0.0,13.0,71,0.00,,,0.00,Weather View 32 v70,2013-03-21 17:58:00,
2013-03-21 14:03:00,31.3,23.3,29.85,NNE,33,3.0,13.0,72,0.00,,,0.00,Weather View 32 v70,2013-03-21 18:03:00,
2013-03-21 14:08:00,31.1,22.1,29.85,SW,229,3.0,13.0,69,0.00,,,0.00,Weather View 32 v70,2013-03-21 18:08:00,
2013-03-21 14:13:00,30.8,21.8,29.85,SSW,199,1.0,13.0,69,0.00,,,0.00,Weather View 32 v70,2013-03-21 18:13:00,
2013-03-21 14:18:00,30.7,21.4,29.85,NNW,331,1.0,13.0,68,0.00,,,0.00,Weather View 32 v70,2013-03-21 18:18:00,
2013-03-21 14:23:00,30.5,21.2,29.84,SW,230,2.0,13.0,68,0.00,,,0.00,Weather View 32 v70,2013-03-21 18:23:00,
2013-03-21 14:28:00,30.4,21.4,29.85,North,5,4.0,13.0,69,0.00,,,0.00,Weather View 32 v70,2013-03-21 18:28:00,
2013-03-21 14:33:00,30.5,21.9,29.85,NW,305,0.0,13.0,70,0.00,,,0.00,Weather View 32 v70,2013-03-21 18:33:00,
2013-03-21 14:38:00,30.5,21.2,29.85,NNW,338,4.0,16.0,68,0.00,,,0.00,Weather View 32 v70,2013-03-21 18:38:00,
2013-03-21 14:43:00,30.5,21.9,29.85,WNW,298,5.0,16.0,70,0.00,,,0.00,Weather View 32 v70,2013-03-21 18:43:00,
2013-03-21 14:48:00,30.4,21.8,29.85,West,276,0.0,16.0,70,0.00,,,0.00,Weather View 32 v70,2013-03-21 18:48:00,
2013-03-21 14:53:00,30.4,22.5,29.85,North,355,1.0,16.0,72,0.00,,,0.00,Weather View 32 v70,2013-03-21 18:53:00,
2013-03-21 14:58:00,30.4,22.1,29.86,South,190,2.0,16.0,71,0.00,,,0.00,Weather View 32 v70,2013-03-21 18:58:00,
2013-03-21 15:03:00,30.4,22.1,29.85,North,5,5.0,16.0,71,0.00,,,0.00,Weather View 32 v70,2013-03-21 19:03:00,
2013-03-21 15:08:00,30.3,22.0,29.85,North,355,4.0,16.0,71,0.00,,,0.00,Weather View 32 v70,2013-03-21 19:08:00,
2013-03-21 15:13:00,30.2,22.3,29.85,NW,311,5.0,16.0,72,0.00,,,0.00,Weather View 32 v70,2013-03-21 19:13:00,
2013-03-21 15:18:00,30.1,22.2,29.85,NNW,337,0.0,16.0,72,0.00,,,0.00,Weather View 32 v70,2013-03-21 19:18:00,
2013-03-21 15:23:00,30.1,22.5,29.85,WNW,292,0.0,16.0,73,0.00,,,0.00,Weather View 32 v70,2013-03-21 19:23:00,
2013-03-21 15:28:00,30.1,22.2,29.85,North,355,3.0,16.0,72,0.00,,,0.00,Weather View 32 v70,2013-03-21 19:28:00,
2013-03-21 15:33:00,30.2,22.6,29.85,WNW,299,3.0,16.0,73,0.00,,,0.00,Weather View 32 v70,2013-03-21 19:33:00,
2013-03-21 15:38:00,30.3,23.3,29.85,WNW,290,3.0,12.0,75,0.00,,,0.00,Weather View 32 v70,2013-03-21 19:38:00,
2013-03-21 15:43:00,30.3,23.3,29.85,NNW,348,2.0,11.0,75,0.00,,,0.00,Weather View 32 v70,2013-03-21 19:43:00,
2013-03-21 15:48:00,30.5,23.8,29.86,South,173,1.0,11.0,76,0.00,,,0.00,Weather View 32 v70,2013-03-21 19:48:00,
2013-03-21 15:53:00,30.6,23.6,29.86,WSW,248,3.0,11.0,75,0.00,,,0.00,Weather View 32 v70,2013-03-21 19:53:00,
2013-03-21 15:58:00,30.5,23.8,29.85,West,267,0.0,11.0,76,0.00,,,0.00,Weather View 32 v70,2013-03-21 19:58:00,
2013-03-21 16:03:00,30.5,23.8,29.85,WNW,290,0.0,12.0,76,0.00,,,0.00,Weather View 32 v70,2013-03-21 20:03:00,
2013-03-21 16:08:00,30.6,23.9,29.85,NW,305,2.0,12.0,76,0.00,,,0.00,Weather View 32 v70,2013-03-21 20:08:00,
2013-03-21 16:13:00,30.7,24.0,29.85,North,10,1.0,12.0,76,0.00,,,0.00,Weather View 32 v70,2013-03-21 20:13:00,
2013-03-21 16:18:00,30.7,24.0,29.85,NW,306,4.0,12.0,76,0.00,,,0.00,Weather View 32 v70,2013-03-21 20:18:00,
2013-03-21 16:23:00,30.8,24.4,29.85,SW,229,5.0,12.0,77,0.00,,,0.00,Weather View 32 v70,2013-03-21 20:23:00,
2013-03-21 16:28:00,31.0,24.3,29.85,West,266,3.0,12.0,76,0.00,,,0.00,Weather View 32 v70,2013-03-21 20:28:00,
2013-03-21 16:33:00,31.1,23.8,29.85,NW,315,0.0,12.0,74,0.00,,,0.00,Weather View 32 v70,2013-03-21 20:33:00,
2013-03-21 16:38:00,31.3,24.0,29.85,SE,143,0.0,12.0,74,0.00,,,0.00,Weather View 32 v70,2013-03-21 20:38:00,
2013-03-21 16:43:00,31.5,23.8,29.85,North,360,7.0,12.0,73,0.00,,,0.00,Weather View 32 v70,2013-03-21 20:43:00,
2013-03-21 16:48:00,31.4,23.4,29.84,SW,228,7.0,12.0,72,0.00,,,0.00,Weather View 32 v70,2013-03-21 20:48:00,
2013-03-21 16:53:00,31.2,23.2,29.85,WNW,300,2.0,12.0,72,0.00,,,0.00,Weather View 32 v70,2013-03-21 20:53:00,
2013-03-21 16:58:00,31.3,23.6,29.85,West,268,4.0,12.0,73,0.00,,,0.00,Weather View 32 v70,2013-03-21 20:58:00,
2013-03-21 17:04:00,31.6,23.9,29.85,WSW,249,0.0,12.0,73,0.00,,,0.00,Weather View 32 v70,2013-03-21 21:04:00,
2013-03-21 17:09:00,32.0,24.3,29.85,SW,223,4.0,12.0,73,0.00,,,0.00,Weather View 32 v70,2013-03-21 21:09:00,
2013-03-21 17:14:00,32.1,24.1,29.85,NW,315,5.0,12.0,72,0.00,,,0.00,Weather View 32 v70,2013-03-21 21:14:00,
2013-03-21 17:19:00,32.0,23.7,29.85,North,10,3.0,12.0,71,0.00,,,0.00,Weather View 32 v70,2013-03-21 21:19:00,
2013-03-21 17:24:00,32.0,23.7,29.85,SSE,166,5.0,12.0,71,0.00,,,0.00,Weather View 32 v70,2013-03-21 21:24:00,
2013-03-21 17:29:00,32.1,24.1,29.85,NW,309,3.0,12.0,72,0.00,,,0.00,Weather View 32 v70,2013-03-21 21:29:00,
2013-03-21 17:34:00,31.9,23.6,29.86,NNW,340,0.0,11.0,71,0.00,,,0.00,Weather View 32 v70,2013-03-21 21:34:00,
2013-03-21 17:39:00,31.7,23.7,29.86,SE,136,5.0,11.0,72,0.00,,,0.00,Weather View 32 v70,2013-03-21 21:39:00,
2013-03-21 17:44:00,31.7,23.7,29.86,West,277,2.0,11.0,72,0.00,,,0.00,Weather View 32 v70,2013-03-21 21:44:00,
2013-03-21 17:49:00,31.7,23.7,29.86,WNW,292,0.0,11.0,72,0.00,,,0.00,Weather View 32 v70,2013-03-21 21:49:00,
2013-03-21 17:54:00,31.7,23.4,29.86,North,355,2.0,11.0,71,0.00,,,0.00,Weather View 32 v70,2013-03-21 21:54:00,
2013-03-21 17:59:00,31.5,23.2,29.86,WNW,290,1.0,11.0,71,0.00,,,0.00,Weather View 32 v70,2013-03-21 21:59:00,
2013-03-21 18:04:00,31.3,23.3,29.86,NNW,344,2.0,11.0,72,0.00,,,0.00,Weather View 32 v70,2013-03-21 22:04:00,
2013-03-21 18:09:00,31.1,23.1,29.86,NE,46,2.0,11.0,72,0.00,,,0.00,Weather View 32 v70,2013-03-21 22:09:00,
2013-03-21 18:14:00,31.0,23.4,29.86,NW,314,3.0,11.0,73,0.00,,,0.00,Weather View 32 v70,2013-03-21 22:14:00,
2013-03-21 18:19:00,30.8,23.5,29.86,WNW,298,0.0,11.0,74,0.00,,,0.00,Weather View 32 v70,2013-03-21 22:19:00,
2013-03-21 18:24:00,30.6,23.6,29.86,SSW,213,3.0,11.0,75,0.00,,,0.00,Weather View 32 v70,2013-03-21 22:24:00,
2013-03-21 18:29:00,30.5,23.2,29.86,NNW,327,4.0,11.0,74,0.00,,,0.00,Weather View 32 v70,2013-03-21 22:29:00,
2013-03-21 18:34:00,30.5,23.2,29.86,NW,326,0.0,11.0,74,0.00,,,0.00,Weather View 32 v70,2013-03-21 22:34:00,
2013-03-21 18:39:00,30.4,23.1,29.86,NW,316,0.0,11.0,74,0.00,,,0.00,Weather View 32 v70,2013-03-21 22:39:00,
2013-03-21 18:44:00,30.3,23.0,29.86,WSW,238,2.0,11.0,74,0.00,,,0.00,Weather View 32 v70,2013-03-21 22:44:00,
2013-03-21 18:49:00,30.3,23.0,29.86,West,281,3.0,11.0,74,0.00,,,0.00,Weather View 32 v70,2013-03-21 22:49:00,
2013-03-21 18:58:00,30.3,23.3,29.86,SW,217,1.0,11.0,75,0.00,,,0.00,Weather View 32 v70,2013-03-21 22:58:00,
2013-03-21 19:03:00,30.2,23.5,29.86,WSW,246,3.0,11.0,76,0.00,,,0.00,Weather View 32 v70,2013-03-21 23:03:00,
2013-03-21 19:08:00,30.0,24.0,29.86,WSW,238,2.0,11.0,78,0.00,,,0.00,Weather View 32 v70,2013-03-21 23:08:00,
2013-03-21 19:13:00,29.7,24.3,29.86,SW,221,3.0,11.0,80,0.00,,,0.00,Weather View 32 v70,2013-03-21 23:13:00,
2013-03-21 19:18:00,29.5,24.4,29.87,WSW,246,0.0,11.0,81,0.00,,,0.00,Weather View 32 v70,2013-03-21 23:18:00,
2013-03-21 19:23:00,29.3,24.2,29.87,SW,236,0.0,11.0,81,0.00,,,0.00,Weather View 32 v70,2013-03-21 23:23:00,
2013-03-21 19:29:00,29.2,24.4,29.86,West,272,1.0,11.0,82,0.00,,,0.00,Weather View 32 v70,2013-03-21 23:29:00,
2013-03-21 19:34:00,29.2,24.4,29.87,WSW,240,2.0,11.0,82,0.00,,,0.00,Weather View 32 v70,2013-03-21 23:34:00,
2013-03-21 19:39:00,29.1,24.3,29.87,WSW,258,0.0,11.0,82,0.00,,,0.00,Weather View 32 v70,2013-03-21 23:39:00,
2013-03-21 19:44:00,29.0,24.2,29.87,North,355,0.0,11.0,82,0.00,,,0.00,Weather View 32 v70,2013-03-21 23:44:00,
2013-03-21 19:49:00,29.0,24.2,29.87,NNE,30,1.0,11.0,82,0.00,,,0.00,Weather View 32 v70,2013-03-21 23:49:00,
2013-03-21 19:54:00,29.1,24.3,29.87,WSW,242,0.0,11.0,82,0.00,,,0.00,Weather View 32 v70,2013-03-21 23:54:00,
2013-03-21 19:59:00,29.1,24.0,29.87,SW,227,1.0,10.0,81,0.00,,,0.00,Weather View 32 v70,2013-03-21 23:59:00,
2013-03-21 20:04:00,29.1,24.0,29.87,West,273,0.0,12.0,81,0.00,,,0.00,Weather View 32 v70,2013-03-22 00:04:00,
2013-03-21 20:09:00,29.0,24.5,29.87,West,273,5.0,12.0,83,0.00,,,0.00,Weather View 32 v70,2013-03-22 00:09:00,
2013-03-21 20:14:00,28.9,24.7,29.87,WSW,254,0.0,12.0,84,0.00,,,0.00,Weather View 32 v70,2013-03-22 00:14:00,
2013-03-21 20:19:00,28.8,24.6,29.87,West,273,0.0,12.0,84,0.00,,,0.00,Weather View 32 v70,2013-03-22 00:19:00,
2013-03-21 20:24:00,28.6,24.4,29.88,WNW,301,3.0,12.0,84,0.00,,,0.00,Weather View 32 v70,2013-03-22 00:24:00,
2013-03-21 20:29:00,28.5,24.3,29.88,North,0,0.0,12.0,84,0.00,,,0.00,Weather View 32 v70,2013-03-22 00:29:00,
2013-03-21 20:34:00,28.4,24.2,29.88,SW,232,1.0,12.0,84,0.00,,,0.00,Weather View 32 v70,2013-03-22 00:34:00,
2013-03-21 20:39:00,28.3,24.1,29.88,WSW,240,3.0,12.0,84,0.00,,,0.00,Weather View 32 v70,2013-03-22 00:39:00,
2013-03-21 20:44:00,28.3,24.1,29.88,WNW,298,2.0,12.0,84,0.00,,,0.00,Weather View 32 v70,2013-03-22 00:44:00,
2013-03-21 20:49:00,28.3,24.1,29.88,WNW,288,0.0,12.0,84,0.00,,,0.00,Weather View 32 v70,2013-03-22 00:49:00,
2013-03-21 20:54:00,28.2,24.0,29.87,SW,214,0.0,12.0,84,0.00,,,0.00,Weather View 32 v70,2013-03-22 00:54:00,
2013-03-21 20:59:00,28.1,23.9,29.88,West,281,0.0,12.0,84,0.00,,,0.00,Weather View 32 v70,2013-03-22 00:59:00,
2013-03-21 21:04:00,28.1,24.2,29.88,NW,304,0.0,11.0,85,0.00,,,0.00,Weather View 32 v70,2013-03-22 01:04:00,
2013-03-21 21:09:00,28.0,24.1,29.88,West,277,3.0,11.0,85,0.00,,,0.00,Weather View 32 v70,2013-03-22 01:09:00,
2013-03-21 21:14:00,27.9,24.0,29.88,NW,321,1.0,11.0,85,0.00,,,0.00,Weather View 32 v70,2013-03-22 01:14:00,
2013-03-21 21:19:00,27.8,23.9,29.88,NNW,329,1.0,11.0,85,0.00,,,0.00,Weather View 32 v70,2013-03-22 01:19:00,
2013-03-21 21:24:00,27.8,23.9,29.88,North,355,5.0,11.0,85,0.00,,,0.00,Weather View 32 v70,2013-03-22 01:24:00,
2013-03-21 21:29:00,27.7,23.5,29.88,NNW,336,0.0,11.0,84,0.00,,,0.00,Weather View 32 v70,2013-03-22 01:29:00,
2013-03-21 21:34:00,27.7,23.5,29.88,WSW,256,0.0,11.0,84,0.00,,,0.00,Weather View 32 v70,2013-03-22 01:34:00,
2013-03-21 21:39:00,27.7,23.5,29.89,NW,319,0.0,11.0,84,0.00,,,0.00,Weather View 32 v70,2013-03-22 01:39:00,
2013-03-21 21:44:00,27.7,23.5,29.89,South,184,0.0,11.0,84,0.00,,,0.00,Weather View 32 v70,2013-03-22 01:44:00,
2013-03-21 21:49:00,27.7,23.5,29.89,NNW,334,9.0,11.0,84,0.00,,,0.00,Weather View 32 v70,2013-03-22 01:49:00,
2013-03-21 21:54:00,27.6,23.1,29.89,West,279,6.0,11.0,83,0.00,,,0.00,Weather View 32 v70,2013-03-22 01:54:00,
2013-03-21 21:59:00,27.6,23.1,29.89,WSW,249,3.0,11.0,83,0.00,,,0.00,Weather View 32 v70,2013-03-22 01:59:00,
2013-03-21 22:04:00,27.6,23.1,29.89,North,11,0.0,11.0,83,0.00,,,0.00,Weather View 32 v70,2013-03-22 02:04:00,
2013-03-21 22:09:00,27.6,23.1,29.89,WNW,292,0.0,11.0,83,0.00,,,0.00,Weather View 32 v70,2013-03-22 02:09:00,
2013-03-21 22:14:00,27.6,23.1,29.89,NW,313,0.0,11.0,83,0.00,,,0.00,Weather View 32 v70,2013-03-22 02:14:00,
2013-03-21 22:19:00,27.5,23.0,29.89,NW,311,0.0,10.0,83,0.00,,,0.00,Weather View 32 v70,2013-03-22 02:19:00,
2013-03-21 22:24:00,27.5,23.0,29.89,NW,310,0.0,10.0,83,0.00,,,0.00,Weather View 32 v70,2013-03-22 02:24:00,
2013-03-21 22:30:00,27.4,22.9,29.89,WNW,299,2.0,9.0,83,0.00,,,0.00,Weather View 32 v70,2013-03-22 02:30:00,
2013-03-21 22:35:00,27.4,22.9,29.90,WSW,241,0.0,9.0,83,0.00,,,0.00,Weather View 32 v70,2013-03-22 02:35:00,
2013-03-21 22:40:00,27.4,22.9,29.90,NW,325,0.0,9.0,83,0.00,,,0.00,Weather View 32 v70,2013-03-22 02:40:00,
2013-03-21 22:45:00,27.3,22.8,29.90,NW,319,0.0,9.0,83,0.00,,,0.00,Weather View 32 v70,2013-03-22 02:45:00,
2013-03-21 22:50:00,27.3,23.1,29.90,WNW,291,0.0,9.0,84,0.00,,,0.00,Weather View 32 v70,2013-03-22 02:50:00,
2013-03-21 22:55:00,27.2,23.0,29.90,WNW,288,0.0,9.0,84,0.00,,,0.00,Weather View 32 v70,2013-03-22 02:55:00,
2013-03-21 23:00:00,27.2,23.0,29.90,WNW,289,0.0,9.0,84,0.00,,,0.00,Weather View 32 v70,2013-03-22 03:00:00,
2013-03-21 23:05:00,27.1,22.9,29.90,NNW,328,0.0,7.0,84,0.00,,,0.00,Weather View 32 v70,2013-03-22 03:05:00,
2013-03-21 23:10:00,27.0,23.1,29.90,NNW,327,1.0,7.0,85,0.00,,,0.00,Weather View 32 v70,2013-03-22 03:10:00,
2013-03-21 23:15:00,26.9,22.4,29.90,West,262,0.0,7.0,83,0.00,,,0.00,Weather View 32 v70,2013-03-22 03:15:00,
2013-03-21 23:20:00,26.8,22.0,29.91,WNW,298,0.0,7.0,82,0.00,,,0.00,Weather View 32 v70,2013-03-22 03:20:00,
2013-03-21 23:25:00,26.8,21.8,29.91,WNW,288,0.0,7.0,81,0.00,,,0.00,Weather View 32 v70,2013-03-22 03:25:00,
2013-03-21 23:30:00,26.8,21.5,29.91,NE,52,0.0,10.0,80,0.00,,,0.00,Weather View 32 v70,2013-03-22 03:30:00,
2013-03-21 23:35:00,26.8,21.8,29.91,NW,315,1.0,10.0,81,0.00,,,0.00,Weather View 32 v70,2013-03-22 03:35:00,
2013-03-21 23:40:00,26.8,21.8,29.91,NW,306,4.0,10.0,81,0.00,,,0.00,Weather View 32 v70,2013-03-22 03:40:00,
2013-03-21 23:45:00,26.8,22.0,29.91,WNW,298,0.0,10.0,82,0.00,,,0.00,Weather View 32 v70,2013-03-22 03:45:00,
2013-03-21 23:50:00,26.7,22.2,29.91,NNW,329,0.0,10.0,83,0.00,,,0.00,Weather View 32 v70,2013-03-22 03:50:00,
2013-03-21 23:55:00,26.7,22.2,29.91,West,269,1.0,10.0,83,0.00,,,0.00,Weather View 32 v70,2013-03-22 03:55:00,